sensor_id;sensor_type;location;lat;lon;timestamp;P1;durP1;ratioP1;P2;durP2;ratioP2
553;SDS011;59;48.778;9.156;2023-06-01T00:01:27;5.70;;;4.27;;
553;SDS011;59;48.778;9.156;2023-06-01T00:03:58;4.60;;;3.50;;
553;SDS011;59;48.778;9.156;2023-06-01T00:06:24;7.43;;;3.90;;
553;SDS011;59;48.778;9.156;2023-06-01T00:08:53;5.50;;;3.90;;
553;SDS011;59;48.778;9.156;2023-06-01T00:11:20;5.73;;;3.83;;
553;SDS011;59;48.778;9.156;2023-06-01T00:13:47;5.60;;;4.23;;
553;SDS011;59;48.778;9.156;2023-06-01T00:16:13;5.47;;;3.83;;
553;SDS011;59;48.778;9.156;2023-06-01T00:18:39;5.23;;;3.77;;
553;SDS011;59;48.778;9.156;2023-06-01T00:21:05;6.70;;;4.10;;
553;SDS011;59;48.778;9.156;2023-06-01T00:23:31;5.30;;;3.53;;
553;SDS011;59;48.778;9.156;2023-06-01T00:25:57;5.47;;;4.10;;
553;SDS011;59;48.778;9.156;2023-06-01T00:28:23;5.40;;;4.03;;
553;SDS011;59;48.778;9.156;2023-06-01T00:30:49;6.17;;;3.70;;
553;SDS011;59;48.778;9.156;2023-06-01T00:33:15;5.50;;;3.70;;
553;SDS011;59;48.778;9.156;2023-06-01T00:35:40;5.50;;;3.10;;
553;SDS011;59;48.778;9.156;2023-06-01T00:38:06;5.97;;;3.93;;
553;SDS011;59;48.778;9.156;2023-06-01T00:40:32;5.57;;;3.60;;
553;SDS011;59;48.778;9.156;2023-06-01T00:42:58;5.80;;;3.90;;
553;SDS011;59;48.778;9.156;2023-06-01T00:45:24;5.87;;;4.00;;
553;SDS011;59;48.778;9.156;2023-06-01T00:47:50;5.47;;;4.17;;
553;SDS011;59;48.778;9.156;2023-06-01T00:50:16;8.80;;;4.00;;
553;SDS011;59;48.778;9.156;2023-06-01T00:52:41;7.33;;;3.70;;
553;SDS011;59;48.778;9.156;2023-06-01T00:55:08;5.13;;;3.83;;
553;SDS011;59;48.778;9.156;2023-06-01T00:57:35;9.13;;;4.43;;
553;SDS011;59;48.778;9.156;2023-06-01T01:00:02;9.73;;;4.40;;
553;SDS011;59;48.778;9.156;2023-06-01T01:02:36;5.50;;;3.60;;
553;SDS011;59;48.778;9.156;2023-06-01T01:05:04;5.73;;;3.90;;
553;SDS011;59;48.778;9.156;2023-06-01T01:15:32;4.97;;;3.87;;
553;SDS011;59;48.778;9.156;2023-06-01T01:18:04;5.07;;;3.80;;
553;SDS011;59;48.778;9.156;2023-06-01T01:20:36;6.63;;;4.37;;
553;SDS011;59;48.778;9.156;2023-06-01T01:26:08;8.23;;;4.83;;
553;SDS011;59;48.778;9.156;2023-06-01T01:28:41;5.70;;;3.70;;
553;SDS011;59;48.778;9.156;2023-06-01T01:31:17;5.43;;;3.73;;
553;SDS011;59;48.778;9.156;2023-06-01T01:33:45;6.50;;;3.90;;
553;SDS011;59;48.778;9.156;2023-06-01T01:36:12;7.03;;;4.07;;
553;SDS011;59;48.778;9.156;2023-06-01T01:38:38;4.97;;;3.80;;
553;SDS011;59;48.778;9.156;2023-06-01T01:41:04;4.63;;;3.83;;
553;SDS011;59;48.778;9.156;2023-06-01T01:43:30;5.80;;;4.17;;
553;SDS011;59;48.778;9.156;2023-06-01T01:46:11;6.30;;;4.00;;
553;SDS011;59;48.778;9.156;2023-06-01T01:51:19;6.07;;;4.07;;
553;SDS011;59;48.778;9.156;2023-06-01T01:53:48;4.57;;;3.80;;
553;SDS011;59;48.778;9.156;2023-06-01T01:56:16;7.33;;;3.80;;
553;SDS011;59;48.778;9.156;2023-06-01T01:58:43;5.90;;;3.80;;
553;SDS011;59;48.778;9.156;2023-06-01T02:01:09;11.30;;;4.40;;
553;SDS011;59;48.778;9.156;2023-06-01T02:03:35;5.50;;;3.77;;
553;SDS011;59;48.778;9.156;2023-06-01T02:06:01;6.53;;;3.97;;
553;SDS011;59;48.778;9.156;2023-06-01T02:08:26;6.93;;;4.23;;
553;SDS011;59;48.778;9.156;2023-06-01T02:10:52;5.77;;;4.20;;
553;SDS011;59;48.778;9.156;2023-06-01T02:13:18;5.80;;;3.77;;
553;SDS011;59;48.778;9.156;2023-06-01T02:15:43;6.70;;;3.73;;
553;SDS011;59;48.778;9.156;2023-06-01T02:18:09;6.80;;;4.03;;
553;SDS011;59;48.778;9.156;2023-06-01T02:20:36;7.10;;;3.90;;
553;SDS011;59;48.778;9.156;2023-06-01T02:23:01;5.70;;;3.70;;
553;SDS011;59;48.778;9.156;2023-06-01T02:25:27;4.90;;;4.03;;
553;SDS011;59;48.778;9.156;2023-06-01T02:27:53;4.90;;;3.57;;
553;SDS011;59;48.778;9.156;2023-06-01T02:30:19;6.20;;;4.20;;
553;SDS011;59;48.778;9.156;2023-06-01T02:32:44;6.70;;;4.03;;
553;SDS011;59;48.778;9.156;2023-06-01T02:35:13;6.10;;;4.00;;
553;SDS011;59;48.778;9.156;2023-06-01T02:37:39;6.53;;;4.00;;
553;SDS011;59;48.778;9.156;2023-06-01T02:40:06;6.67;;;4.00;;
553;SDS011;59;48.778;9.156;2023-06-01T02:42:36;4.50;;;3.90;;
553;SDS011;59;48.778;9.156;2023-06-01T02:45:05;5.40;;;3.83;;
553;SDS011;59;48.778;9.156;2023-06-01T02:47:32;6.80;;;4.03;;
553;SDS011;59;48.778;9.156;2023-06-01T02:49:57;6.63;;;4.00;;
553;SDS011;59;48.778;9.156;2023-06-01T02:52:23;9.00;;;4.47;;
553;SDS011;59;48.778;9.156;2023-06-01T02:54:48;5.10;;;3.47;;
553;SDS011;59;48.778;9.156;2023-06-01T02:57:14;5.73;;;4.10;;
553;SDS011;59;48.778;9.156;2023-06-01T02:59:40;5.50;;;3.73;;
553;SDS011;59;48.778;9.156;2023-06-01T03:02:06;5.20;;;3.70;;
553;SDS011;59;48.778;9.156;2023-06-01T03:04:31;5.30;;;3.70;;
553;SDS011;59;48.778;9.156;2023-06-01T03:06:57;7.03;;;3.80;;
553;SDS011;59;48.778;9.156;2023-06-01T03:09:24;9.80;;;4.50;;
553;SDS011;59;48.778;9.156;2023-06-01T03:11:50;7.13;;;3.90;;
553;SDS011;59;48.778;9.156;2023-06-01T03:14:16;5.50;;;4.00;;
553;SDS011;59;48.778;9.156;2023-06-01T03:16:41;6.40;;;4.43;;
553;SDS011;59;48.778;9.156;2023-06-01T03:19:07;6.47;;;3.50;;
553;SDS011;59;48.778;9.156;2023-06-01T03:21:32;5.20;;;3.73;;
553;SDS011;59;48.778;9.156;2023-06-01T03:23:58;7.03;;;4.10;;
553;SDS011;59;48.778;9.156;2023-06-01T03:26:24;8.77;;;4.50;;
553;SDS011;59;48.778;9.156;2023-06-01T03:28:50;6.60;;;4.10;;
553;SDS011;59;48.778;9.156;2023-06-01T03:31:16;5.73;;;3.80;;
553;SDS011;59;48.778;9.156;2023-06-01T03:33:42;9.20;;;4.27;;
553;SDS011;59;48.778;9.156;2023-06-01T03:36:07;8.17;;;4.00;;
553;SDS011;59;48.778;9.156;2023-06-01T03:38:33;7.40;;;4.60;;
553;SDS011;59;48.778;9.156;2023-06-01T03:40:59;6.67;;;3.90;;
553;SDS011;59;48.778;9.156;2023-06-01T03:43:28;5.13;;;3.70;;
553;SDS011;59;48.778;9.156;2023-06-01T03:45:55;5.67;;;3.90;;
553;SDS011;59;48.778;9.156;2023-06-01T03:48:21;5.53;;;3.73;;
553;SDS011;59;48.778;9.156;2023-06-01T03:50:47;6.80;;;3.80;;
553;SDS011;59;48.778;9.156;2023-06-01T03:53:12;5.90;;;4.13;;
553;SDS011;59;48.778;9.156;2023-06-01T03:55:38;4.90;;;3.60;;
553;SDS011;59;48.778;9.156;2023-06-01T03:58:04;6.80;;;3.80;;
553;SDS011;59;48.778;9.156;2023-06-01T04:00:29;5.97;;;3.80;;
553;SDS011;59;48.778;9.156;2023-06-01T04:02:56;6.20;;;3.73;;
553;SDS011;59;48.778;9.156;2023-06-01T04:05:24;6.43;;;3.80;;
553;SDS011;59;48.778;9.156;2023-06-01T04:07:51;6.53;;;3.83;;
553;SDS011;59;48.778;9.156;2023-06-01T04:10:18;7.73;;;3.70;;
553;SDS011;59;48.778;9.156;2023-06-01T04:12:44;5.97;;;3.70;;
553;SDS011;59;48.778;9.156;2023-06-01T04:15:11;7.27;;;4.30;;
553;SDS011;59;48.778;9.156;2023-06-01T04:17:38;7.93;;;4.07;;
553;SDS011;59;48.778;9.156;2023-06-01T04:20:04;6.87;;;4.20;;
553;SDS011;59;48.778;9.156;2023-06-01T04:22:37;8.50;;;3.90;;
553;SDS011;59;48.778;9.156;2023-06-01T04:25:05;6.30;;;3.93;;
553;SDS011;59;48.778;9.156;2023-06-01T04:27:33;6.20;;;3.63;;
553;SDS011;59;48.778;9.156;2023-06-01T04:30:02;6.50;;;3.80;;
553;SDS011;59;48.778;9.156;2023-06-01T04:32:33;5.63;;;3.50;;
553;SDS011;59;48.778;9.156;2023-06-01T04:35:05;5.77;;;4.33;;
553;SDS011;59;48.778;9.156;2023-06-01T04:37:32;5.57;;;4.00;;
553;SDS011;59;48.778;9.156;2023-06-01T04:39:59;6.80;;;4.20;;
553;SDS011;59;48.778;9.156;2023-06-01T04:42:25;7.37;;;4.17;;
553;SDS011;59;48.778;9.156;2023-06-01T04:44:52;5.60;;;3.83;;
553;SDS011;59;48.778;9.156;2023-06-01T04:47:18;7.47;;;4.00;;
553;SDS011;59;48.778;9.156;2023-06-01T04:49:46;6.73;;;3.90;;
553;SDS011;59;48.778;9.156;2023-06-01T04:52:12;5.93;;;3.80;;
553;SDS011;59;48.778;9.156;2023-06-01T04:54:38;5.67;;;3.50;;
553;SDS011;59;48.778;9.156;2023-06-01T04:57:04;4.17;;;3.60;;
553;SDS011;59;48.778;9.156;2023-06-01T04:59:33;4.70;;;3.67;;
553;SDS011;59;48.778;9.156;2023-06-01T05:01:59;6.87;;;4.03;;
553;SDS011;59;48.778;9.156;2023-06-01T05:04:25;6.60;;;4.60;;
553;SDS011;59;48.778;9.156;2023-06-01T05:06:51;5.07;;;3.67;;
553;SDS011;59;48.778;9.156;2023-06-01T05:09:16;5.63;;;3.80;;
553;SDS011;59;48.778;9.156;2023-06-01T05:11:43;6.10;;;4.23;;
553;SDS011;59;48.778;9.156;2023-06-01T05:14:09;8.77;;;3.70;;
553;SDS011;59;48.778;9.156;2023-06-01T05:16:35;6.63;;;4.17;;
553;SDS011;59;48.778;9.156;2023-06-01T05:19:01;6.90;;;4.13;;
553;SDS011;59;48.778;9.156;2023-06-01T05:21:26;6.50;;;4.40;;
553;SDS011;59;48.778;9.156;2023-06-01T05:23:53;6.40;;;3.73;;
553;SDS011;59;48.778;9.156;2023-06-01T05:26:18;8.60;;;3.87;;
553;SDS011;59;48.778;9.156;2023-06-01T05:28:47;5.07;;;3.80;;
553;SDS011;59;48.778;9.156;2023-06-01T05:31:12;7.50;;;4.07;;
553;SDS011;59;48.778;9.156;2023-06-01T05:33:38;7.07;;;4.30;;
553;SDS011;59;48.778;9.156;2023-06-01T05:36:04;7.87;;;4.23;;
553;SDS011;59;48.778;9.156;2023-06-01T05:38:29;6.90;;;4.17;;
553;SDS011;59;48.778;9.156;2023-06-01T05:40:56;5.77;;;3.67;;
553;SDS011;59;48.778;9.156;2023-06-01T05:43:21;5.00;;;3.90;;
553;SDS011;59;48.778;9.156;2023-06-01T05:45:47;5.00;;;3.77;;
553;SDS011;59;48.778;9.156;2023-06-01T05:48:13;7.33;;;3.53;;
553;SDS011;59;48.778;9.156;2023-06-01T05:50:40;5.37;;;3.80;;
553;SDS011;59;48.778;9.156;2023-06-01T05:53:07;9.40;;;4.00;;
553;SDS011;59;48.778;9.156;2023-06-01T05:55:33;5.73;;;3.60;;
553;SDS011;59;48.778;9.156;2023-06-01T05:57:59;6.40;;;3.47;;
553;SDS011;59;48.778;9.156;2023-06-01T06:00:24;7.37;;;3.80;;
553;SDS011;59;48.778;9.156;2023-06-01T06:02:50;7.70;;;4.23;;
553;SDS011;59;48.778;9.156;2023-06-01T06:05:16;8.23;;;4.13;;
553;SDS011;59;48.778;9.156;2023-06-01T06:07:41;5.53;;;3.60;;
553;SDS011;59;48.778;9.156;2023-06-01T06:10:07;6.80;;;4.10;;
553;SDS011;59;48.778;9.156;2023-06-01T06:12:33;5.47;;;3.93;;
553;SDS011;59;48.778;9.156;2023-06-01T06:14:59;6.33;;;3.93;;
553;SDS011;59;48.778;9.156;2023-06-01T06:17:25;8.90;;;4.03;;
553;SDS011;59;48.778;9.156;2023-06-01T06:19:50;4.30;;;3.57;;
553;SDS011;59;48.778;9.156;2023-06-01T06:22:16;6.57;;;4.03;;
553;SDS011;59;48.778;9.156;2023-06-01T06:24:42;4.57;;;3.70;;
553;SDS011;59;48.778;9.156;2023-06-01T06:27:11;6.77;;;4.37;;
553;SDS011;59;48.778;9.156;2023-06-01T06:29:37;6.87;;;3.93;;
553;SDS011;59;48.778;9.156;2023-06-01T06:32:02;4.73;;;3.70;;
553;SDS011;59;48.778;9.156;2023-06-01T06:34:30;8.20;;;4.30;;
553;SDS011;59;48.778;9.156;2023-06-01T06:37:01;5.23;;;4.00;;
553;SDS011;59;48.778;9.156;2023-06-01T06:39:31;6.33;;;3.43;;
553;SDS011;59;48.778;9.156;2023-06-01T06:41:57;5.70;;;3.83;;
553;SDS011;59;48.778;9.156;2023-06-01T06:44:23;6.97;;;3.87;;
553;SDS011;59;48.778;9.156;2023-06-01T06:46:49;5.90;;;3.60;;
553;SDS011;59;48.778;9.156;2023-06-01T06:49:14;6.67;;;4.07;;
553;SDS011;59;48.778;9.156;2023-06-01T06:51:40;5.27;;;3.70;;
553;SDS011;59;48.778;9.156;2023-06-01T06:54:06;7.93;;;4.00;;
553;SDS011;59;48.778;9.156;2023-06-01T06:56:32;6.57;;;4.30;;
553;SDS011;59;48.778;9.156;2023-06-01T06:58:57;7.87;;;5.93;;
553;SDS011;59;48.778;9.156;2023-06-01T07:01:24;8.40;;;4.90;;
553;SDS011;59;48.778;9.156;2023-06-01T07:03:51;7.87;;;5.17;;
553;SDS011;59;48.778;9.156;2023-06-01T07:06:17;24.63;;;18.17;;
553;SDS011;59;48.778;9.156;2023-06-01T07:08:43;19.73;;;14.23;;
553;SDS011;59;48.778;9.156;2023-06-01T07:11:09;9.00;;;5.70;;
553;SDS011;59;48.778;9.156;2023-06-01T07:13:35;9.50;;;4.97;;
553;SDS011;59;48.778;9.156;2023-06-01T07:16:02;10.97;;;5.10;;
553;SDS011;59;48.778;9.156;2023-06-01T07:21:35;6.20;;;4.43;;
553;SDS011;59;48.778;9.156;2023-06-01T07:24:01;7.30;;;4.07;;
553;SDS011;59;48.778;9.156;2023-06-01T07:26:27;6.87;;;4.37;;
553;SDS011;59;48.778;9.156;2023-06-01T07:28:54;8.93;;;4.63;;
553;SDS011;59;48.778;9.156;2023-06-01T07:31:21;6.47;;;4.13;;
553;SDS011;59;48.778;9.156;2023-06-01T07:33:47;7.53;;;4.27;;
553;SDS011;59;48.778;9.156;2023-06-01T07:36:13;8.83;;;4.47;;
553;SDS011;59;48.778;9.156;2023-06-01T07:38:39;7.77;;;4.30;;
553;SDS011;59;48.778;9.156;2023-06-01T07:41:05;8.60;;;4.77;;
553;SDS011;59;48.778;9.156;2023-06-01T07:43:35;5.40;;;4.00;;
553;SDS011;59;48.778;9.156;2023-06-01T07:46:01;5.97;;;3.90;;
553;SDS011;59;48.778;9.156;2023-06-01T07:48:27;8.03;;;4.80;;
553;SDS011;59;48.778;9.156;2023-06-01T07:50:52;6.77;;;4.43;;
553;SDS011;59;48.778;9.156;2023-06-01T07:53:18;7.47;;;4.60;;
553;SDS011;59;48.778;9.156;2023-06-01T07:55:45;7.33;;;4.20;;
553;SDS011;59;48.778;9.156;2023-06-01T07:58:13;7.90;;;4.87;;
553;SDS011;59;48.778;9.156;2023-06-01T08:00:39;17.83;;;12.63;;
553;SDS011;59;48.778;9.156;2023-06-01T08:03:05;12.55;;;8.35;;
553;SDS011;59;48.778;9.156;2023-06-01T08:05:33;8.43;;;6.30;;
553;SDS011;59;48.778;9.156;2023-06-01T08:07:59;7.57;;;5.50;;
553;SDS011;59;48.778;9.156;2023-06-01T08:10:25;9.53;;;5.50;;
553;SDS011;59;48.778;9.156;2023-06-01T08:12:51;8.97;;;5.47;;
553;SDS011;59;48.778;9.156;2023-06-01T08:15:21;6.97;;;4.70;;
553;SDS011;59;48.778;9.156;2023-06-01T08:17:48;7.17;;;5.07;;
553;SDS011;59;48.778;9.156;2023-06-01T08:20:15;8.43;;;5.10;;
553;SDS011;59;48.778;9.156;2023-06-01T08:22:46;9.00;;;5.17;;
553;SDS011;59;48.778;9.156;2023-06-01T08:25:12;6.17;;;4.80;;
553;SDS011;59;48.778;9.156;2023-06-01T08:27:39;7.80;;;4.63;;
553;SDS011;59;48.778;9.156;2023-06-01T08:30:05;9.63;;;4.80;;
553;SDS011;59;48.778;9.156;2023-06-01T08:32:32;8.13;;;5.10;;
553;SDS011;59;48.778;9.156;2023-06-01T08:34:58;16.80;;;11.80;;
553;SDS011;59;48.778;9.156;2023-06-01T08:37:24;19.37;;;14.50;;
553;SDS011;59;48.778;9.156;2023-06-01T08:39:49;12.10;;;6.87;;
553;SDS011;59;48.778;9.156;2023-06-01T08:44:53;7.43;;;4.70;;
553;SDS011;59;48.778;9.156;2023-06-01T08:47:25;6.83;;;5.63;;
553;SDS011;59;48.778;9.156;2023-06-01T08:49:51;10.17;;;5.60;;
553;SDS011;59;48.778;9.156;2023-06-01T08:52:21;6.80;;;5.50;;
553;SDS011;59;48.778;9.156;2023-06-01T08:54:48;8.10;;;5.87;;
553;SDS011;59;48.778;9.156;2023-06-01T08:57:15;9.57;;;5.50;;
553;SDS011;59;48.778;9.156;2023-06-01T08:59:41;9.20;;;5.67;;
553;SDS011;59;48.778;9.156;2023-06-01T09:02:06;7.20;;;5.10;;
553;SDS011;59;48.778;9.156;2023-06-01T09:04:33;7.37;;;4.83;;
553;SDS011;59;48.778;9.156;2023-06-01T09:07:01;9.63;;;5.20;;
553;SDS011;59;48.778;9.156;2023-06-01T09:09:27;8.53;;;5.53;;
553;SDS011;59;48.778;9.156;2023-06-01T09:14:49;6.40;;;4.90;;
553;SDS011;59;48.778;9.156;2023-06-01T09:17:20;7.20;;;5.90;;
553;SDS011;59;48.778;9.156;2023-06-01T09:19:47;8.17;;;7.17;;
553;SDS011;59;48.778;9.156;2023-06-01T09:22:14;30.87;;;24.53;;
553;SDS011;59;48.778;9.156;2023-06-01T09:24:40;21.87;;;15.17;;
553;SDS011;59;48.778;9.156;2023-06-01T09:27:06;12.97;;;10.43;;
553;SDS011;59;48.778;9.156;2023-06-01T09:29:32;10.67;;;6.70;;
553;SDS011;59;48.778;9.156;2023-06-01T09:31:59;10.20;;;6.80;;
553;SDS011;59;48.778;9.156;2023-06-01T09:34:26;10.27;;;7.17;;
553;SDS011;59;48.778;9.156;2023-06-01T09:36:52;8.33;;;6.17;;
553;SDS011;59;48.778;9.156;2023-06-01T09:39:21;8.53;;;5.83;;
553;SDS011;59;48.778;9.156;2023-06-01T09:46:54;8.00;;;5.30;;
553;SDS011;59;48.778;9.156;2023-06-01T09:49:47;8.20;;;5.63;;
553;SDS011;59;48.778;9.156;2023-06-01T09:52:16;9.23;;;5.90;;
553;SDS011;59;48.778;9.156;2023-06-01T09:57:12;10.50;;;6.07;;
553;SDS011;59;48.778;9.156;2023-06-01T09:59:39;9.90;;;5.87;;
553;SDS011;59;48.778;9.156;2023-06-01T10:02:06;8.37;;;5.70;;
553;SDS011;59;48.778;9.156;2023-06-01T10:04:33;11.70;;;5.87;;
553;SDS011;59;48.778;9.156;2023-06-01T10:07:01;8.40;;;5.60;;
553;SDS011;59;48.778;9.156;2023-06-01T10:09:27;8.23;;;5.43;;
553;SDS011;59;48.778;9.156;2023-06-01T10:11:54;9.93;;;6.10;;
553;SDS011;59;48.778;9.156;2023-06-01T10:14:24;8.20;;;5.63;;
553;SDS011;59;48.778;9.156;2023-06-01T10:16:50;8.10;;;6.23;;
553;SDS011;59;48.778;9.156;2023-06-01T10:19:17;8.50;;;5.80;;
553;SDS011;59;48.778;9.156;2023-06-01T10:21:44;9.80;;;5.83;;
553;SDS011;59;48.778;9.156;2023-06-01T10:24:11;10.37;;;5.87;;
553;SDS011;59;48.778;9.156;2023-06-01T10:26:46;8.60;;;5.90;;
553;SDS011;59;48.778;9.156;2023-06-01T10:29:18;8.20;;;5.57;;
553;SDS011;59;48.778;9.156;2023-06-01T10:31:44;6.20;;;5.20;;
553;SDS011;59;48.778;9.156;2023-06-01T10:34:10;8.10;;;5.77;;
553;SDS011;59;48.778;9.156;2023-06-01T10:41:47;7.97;;;5.47;;
553;SDS011;59;48.778;9.156;2023-06-01T10:44:44;7.10;;;5.70;;
553;SDS011;59;48.778;9.156;2023-06-01T10:47:50;6.40;;;5.00;;
553;SDS011;59;48.778;9.156;2023-06-01T10:52:29;6.97;;;5.20;;
553;SDS011;59;48.778;9.156;2023-06-01T10:55:41;6.70;;;5.13;;
553;SDS011;59;48.778;9.156;2023-06-01T10:57:42;9.13;;;5.47;;
553;SDS011;59;48.778;9.156;2023-06-01T11:00:25;6.67;;;5.20;;
553;SDS011;59;48.778;9.156;2023-06-01T11:02:52;8.20;;;5.40;;
553;SDS011;59;48.778;9.156;2023-06-01T11:05:42;7.73;;;5.60;;
553;SDS011;59;48.778;9.156;2023-06-01T11:13:20;7.47;;;5.43;;
553;SDS011;59;48.778;9.156;2023-06-01T11:16:35;9.03;;;5.83;;
553;SDS011;59;48.778;9.156;2023-06-01T11:21:44;9.40;;;6.33;;
553;SDS011;59;48.778;9.156;2023-06-01T11:24:13;7.80;;;5.50;;
553;SDS011;59;48.778;9.156;2023-06-01T11:26:46;7.43;;;4.93;;
553;SDS011;59;48.778;9.156;2023-06-01T11:29:22;8.93;;;5.40;;
553;SDS011;59;48.778;9.156;2023-06-01T11:36:59;8.40;;;4.90;;
553;SDS011;59;48.778;9.156;2023-06-01T11:39:27;6.77;;;5.10;;
553;SDS011;59;48.778;9.156;2023-06-01T11:42:08;7.13;;;5.00;;
553;SDS011;59;48.778;9.156;2023-06-01T11:44:38;7.87;;;5.30;;
553;SDS011;59;48.778;9.156;2023-06-01T11:47:05;9.70;;;5.53;;
553;SDS011;59;48.778;9.156;2023-06-01T11:52:14;11.50;;;5.33;;
553;SDS011;59;48.778;9.156;2023-06-01T11:54:41;6.93;;;5.27;;
553;SDS011;59;48.778;9.156;2023-06-01T11:57:07;5.83;;;4.57;;
553;SDS011;59;48.778;9.156;2023-06-01T11:59:39;6.50;;;4.77;;
553;SDS011;59;48.778;9.156;2023-06-01T12:02:24;6.60;;;5.30;;
553;SDS011;59;48.778;9.156;2023-06-01T12:04:55;5.73;;;4.60;;
553;SDS011;59;48.778;9.156;2023-06-01T12:07:22;7.50;;;5.53;;
553;SDS011;59;48.778;9.156;2023-06-01T12:09:49;5.93;;;4.90;;
553;SDS011;59;48.778;9.156;2023-06-01T12:12:19;8.43;;;4.97;;
553;SDS011;59;48.778;9.156;2023-06-01T12:14:49;8.43;;;5.53;;
553;SDS011;59;48.778;9.156;2023-06-01T12:17:16;8.87;;;5.30;;
553;SDS011;59;48.778;9.156;2023-06-01T12:19:45;6.10;;;4.90;;
553;SDS011;59;48.778;9.156;2023-06-01T12:22:12;6.27;;;4.80;;
553;SDS011;59;48.778;9.156;2023-06-01T12:24:38;8.33;;;5.33;;
553;SDS011;59;48.778;9.156;2023-06-01T12:27:12;6.53;;;5.40;;
553;SDS011;59;48.778;9.156;2023-06-01T12:29:42;8.03;;;5.77;;
553;SDS011;59;48.778;9.156;2023-06-01T12:32:10;5.83;;;4.73;;
553;SDS011;59;48.778;9.156;2023-06-01T12:34:37;6.50;;;4.93;;
553;SDS011;59;48.778;9.156;2023-06-01T12:37:10;8.13;;;5.10;;
553;SDS011;59;48.778;9.156;2023-06-01T12:39:40;7.63;;;5.03;;
553;SDS011;59;48.778;9.156;2023-06-01T12:42:06;7.40;;;5.10;;
553;SDS011;59;48.778;9.156;2023-06-01T12:44:34;6.20;;;4.80;;
553;SDS011;59;48.778;9.156;2023-06-01T12:47:00;5.97;;;4.40;;
553;SDS011;59;48.778;9.156;2023-06-01T12:49:26;5.90;;;4.40;;
553;SDS011;59;48.778;9.156;2023-06-01T12:51:53;8.77;;;5.47;;
553;SDS011;59;48.778;9.156;2023-06-01T12:54:18;8.27;;;5.13;;
553;SDS011;59;48.778;9.156;2023-06-01T12:56:47;6.40;;;5.03;;
553;SDS011;59;48.778;9.156;2023-06-01T12:59:13;6.43;;;5.43;;
553;SDS011;59;48.778;9.156;2023-06-01T13:01:39;6.70;;;4.90;;
553;SDS011;59;48.778;9.156;2023-06-01T13:04:05;11.37;;;5.13;;
553;SDS011;59;48.778;9.156;2023-06-01T13:06:32;8.67;;;7.03;;
553;SDS011;59;48.778;9.156;2023-06-01T13:08:59;11.07;;;8.23;;
553;SDS011;59;48.778;9.156;2023-06-01T13:11:26;11.67;;;10.20;;
553;SDS011;59;48.778;9.156;2023-06-01T13:13:52;14.70;;;10.53;;
553;SDS011;59;48.778;9.156;2023-06-01T13:16:18;11.80;;;8.90;;
553;SDS011;59;48.778;9.156;2023-06-01T13:18:44;8.70;;;6.80;;
553;SDS011;59;48.778;9.156;2023-06-01T13:21:12;7.87;;;6.07;;
553;SDS011;59;48.778;9.156;2023-06-01T13:23:38;8.40;;;6.10;;
553;SDS011;59;48.778;9.156;2023-06-01T13:26:04;7.93;;;5.60;;
553;SDS011;59;48.778;9.156;2023-06-01T13:28:30;7.77;;;5.70;;
553;SDS011;59;48.778;9.156;2023-06-01T13:30:55;6.90;;;5.20;;
553;SDS011;59;48.778;9.156;2023-06-01T13:33:21;6.60;;;5.37;;
553;SDS011;59;48.778;9.156;2023-06-01T13:35:47;7.07;;;5.50;;
553;SDS011;59;48.778;9.156;2023-06-01T13:38:13;5.87;;;4.97;;
553;SDS011;59;48.778;9.156;2023-06-01T13:40:39;7.00;;;5.17;;
553;SDS011;59;48.778;9.156;2023-06-01T13:43:04;6.37;;;5.20;;
553;SDS011;59;48.778;9.156;2023-06-01T13:45:31;7.90;;;5.40;;
553;SDS011;59;48.778;9.156;2023-06-01T13:47:57;7.27;;;5.33;;
553;SDS011;59;48.778;9.156;2023-06-01T13:50:23;10.00;;;5.57;;
553;SDS011;59;48.778;9.156;2023-06-01T13:52:50;7.87;;;5.07;;
553;SDS011;59;48.778;9.156;2023-06-01T13:55:17;6.30;;;5.13;;
553;SDS011;59;48.778;9.156;2023-06-01T13:57:43;5.80;;;4.40;;
553;SDS011;59;48.778;9.156;2023-06-01T14:00:09;6.50;;;4.80;;
553;SDS011;59;48.778;9.156;2023-06-01T14:02:35;6.10;;;4.87;;
553;SDS011;59;48.778;9.156;2023-06-01T14:05:01;8.93;;;6.57;;
553;SDS011;59;48.778;9.156;2023-06-01T14:07:27;11.07;;;8.90;;
553;SDS011;59;48.778;9.156;2023-06-01T14:09:53;7.60;;;4.87;;
553;SDS011;59;48.778;9.156;2023-06-01T14:12:18;7.27;;;4.70;;
553;SDS011;59;48.778;9.156;2023-06-01T14:14:44;5.30;;;4.63;;
553;SDS011;59;48.778;9.156;2023-06-01T14:17:10;5.10;;;3.93;;
553;SDS011;59;48.778;9.156;2023-06-01T14:19:35;7.50;;;4.43;;
553;SDS011;59;48.778;9.156;2023-06-01T14:22:01;5.70;;;4.00;;
553;SDS011;59;48.778;9.156;2023-06-01T14:24:27;4.50;;;3.60;;
553;SDS011;59;48.778;9.156;2023-06-01T14:26:53;6.37;;;4.00;;
553;SDS011;59;48.778;9.156;2023-06-01T14:29:18;8.20;;;4.20;;
553;SDS011;59;48.778;9.156;2023-06-01T14:31:45;4.00;;;3.50;;
553;SDS011;59;48.778;9.156;2023-06-01T14:34:11;6.40;;;4.40;;
553;SDS011;59;48.778;9.156;2023-06-01T14:36:36;5.20;;;4.00;;
553;SDS011;59;48.778;9.156;2023-06-01T14:39:02;7.57;;;4.17;;
553;SDS011;59;48.778;9.156;2023-06-01T14:41:30;4.27;;;3.20;;
553;SDS011;59;48.778;9.156;2023-06-01T14:43:55;4.70;;;3.53;;
553;SDS011;59;48.778;9.156;2023-06-01T14:46:21;5.03;;;3.30;;
553;SDS011;59;48.778;9.156;2023-06-01T14:48:47;4.20;;;3.60;;
553;SDS011;59;48.778;9.156;2023-06-01T14:51:13;5.20;;;3.17;;
553;SDS011;59;48.778;9.156;2023-06-01T14:53:38;6.33;;;3.43;;
553;SDS011;59;48.778;9.156;2023-06-01T14:56:07;5.70;;;3.60;;
553;SDS011;59;48.778;9.156;2023-06-01T14:58:34;6.97;;;3.93;;
553;SDS011;59;48.778;9.156;2023-06-01T15:00:59;6.90;;;3.70;;
553;SDS011;59;48.778;9.156;2023-06-01T15:03:25;9.53;;;3.90;;
553;SDS011;59;48.778;9.156;2023-06-01T15:05:51;4.00;;;3.00;;
553;SDS011;59;48.778;9.156;2023-06-01T15:08:16;4.10;;;3.10;;
553;SDS011;59;48.778;9.156;2023-06-01T15:10:45;5.00;;;3.20;;
553;SDS011;59;48.778;9.156;2023-06-01T15:13:11;4.70;;;3.20;;
553;SDS011;59;48.778;9.156;2023-06-01T15:15:38;5.70;;;3.83;;
553;SDS011;59;48.778;9.156;2023-06-01T15:18:05;6.30;;;3.40;;
553;SDS011;59;48.778;9.156;2023-06-01T15:20:30;3.80;;;3.00;;
553;SDS011;59;48.778;9.156;2023-06-01T15:22:56;5.30;;;3.27;;
553;SDS011;59;48.778;9.156;2023-06-01T15:25:22;6.87;;;3.80;;
553;SDS011;59;48.778;9.156;2023-06-01T15:27:48;6.40;;;3.63;;
553;SDS011;59;48.778;9.156;2023-06-01T15:30:13;20.10;;;15.00;;
553;SDS011;59;48.778;9.156;2023-06-01T15:32:39;19.50;;;15.30;;
553;SDS011;59;48.778;9.156;2023-06-01T15:35:05;13.90;;;10.70;;
553;SDS011;59;48.778;9.156;2023-06-01T15:37:33;5.83;;;4.40;;
553;SDS011;59;48.778;9.156;2023-06-01T15:39:59;5.70;;;3.73;;
553;SDS011;59;48.778;9.156;2023-06-01T15:42:24;4.83;;;3.80;;
553;SDS011;59;48.778;9.156;2023-06-01T15:44:50;6.00;;;3.77;;
553;SDS011;59;48.778;9.156;2023-06-01T15:47:16;5.03;;;3.20;;
553;SDS011;59;48.778;9.156;2023-06-01T15:49:41;4.00;;;3.50;;
553;SDS011;59;48.778;9.156;2023-06-01T15:52:08;5.80;;;3.10;;
553;SDS011;59;48.778;9.156;2023-06-01T15:54:34;3.97;;;3.00;;
553;SDS011;59;48.778;9.156;2023-06-01T15:57:00;3.80;;;3.00;;
553;SDS011;59;48.778;9.156;2023-06-01T15:59:26;3.93;;;3.33;;
553;SDS011;59;48.778;9.156;2023-06-01T16:01:52;6.67;;;3.47;;
553;SDS011;59;48.778;9.156;2023-06-01T16:04:18;3.20;;;2.63;;
553;SDS011;59;48.778;9.156;2023-06-01T16:06:43;5.00;;;3.23;;
553;SDS011;59;48.778;9.156;2023-06-01T16:09:09;6.03;;;3.13;;
553;SDS011;59;48.778;9.156;2023-06-01T16:11:35;6.23;;;3.17;;
553;SDS011;59;48.778;9.156;2023-06-01T16:14:01;3.90;;;2.93;;
553;SDS011;59;48.778;9.156;2023-06-01T16:16:27;22.93;;;18.80;;
553;SDS011;59;48.778;9.156;2023-06-01T16:18:52;32.23;;;24.53;;
553;SDS011;59;48.778;9.156;2023-06-01T16:21:18;20.23;;;16.00;;
553;SDS011;59;48.778;9.156;2023-06-01T16:23:44;16.40;;;10.10;;
553;SDS011;59;48.778;9.156;2023-06-01T16:26:10;9.10;;;6.83;;
553;SDS011;59;48.778;9.156;2023-06-01T16:28:36;5.57;;;4.67;;
553;SDS011;59;48.778;9.156;2023-06-01T16:31:02;5.30;;;3.30;;
553;SDS011;59;48.778;9.156;2023-06-01T16:33:28;2.97;;;2.57;;
553;SDS011;59;48.778;9.156;2023-06-01T16:35:53;5.07;;;2.90;;
553;SDS011;59;48.778;9.156;2023-06-01T16:38:19;5.33;;;3.10;;
553;SDS011;59;48.778;9.156;2023-06-01T16:40:45;4.43;;;2.80;;
553;SDS011;59;48.778;9.156;2023-06-01T16:43:11;3.23;;;2.40;;
553;SDS011;59;48.778;9.156;2023-06-01T16:45:38;2.50;;;2.37;;
553;SDS011;59;48.778;9.156;2023-06-01T16:48:04;5.10;;;2.83;;
553;SDS011;59;48.778;9.156;2023-06-01T16:50:32;3.60;;;2.83;;
553;SDS011;59;48.778;9.156;2023-06-01T16:52:58;5.90;;;3.20;;